Time;durP1;ratioP1;P1;durP2;ratioP2;P2;SDS_P1;SDS_P2;PMS_P1;PMS_P2;Temp;Humidity;BMP_temperature;BMP_pressure;BME280_temperature;BME280_humidity;BME280_pressure;Samples;Min_cycle;Max_cycle;Signal;HPM_P1;HPM_P2
2022/11/29 00:02:43;;;;;;;23.85;7.45;;;10.20;99.90;;;;;;10464886;28;20060;-65
2022/11/29 00:07:43;;;;;;;20.58;7.70;;;10.30;99.90;;;;;;10469173;28;20501;-62
2022/11/29 00:12:47;;;;;;;18.90;6.93;;;10.20;99.90;;;;;;10472099;28;20021;-66
2022/11/29 00:17:48;;;;;;;18.02;7.15;;;10.20;99.90;;;;;;10462450;28;20025;-60
2022/11/29 00:22:48;;;;;;;19.55;6.97;;;10.20;99.90;;;;;;10467194;28;20018;-61
2022/11/29 00:27:50;;;;;;;18.70;7.25;;;10.20;99.90;;;;;;10466145;28;20043;-61
2022/11/29 00:32:51;;;;;;;16.73;6.35;;;10.20;99.90;;;;;;10467267;28;20025;-61
2022/11/29 00:37:51;;;;;;;21.38;7.97;;;10.20;99.90;;;;;;10469047;28;20084;-69
2022/11/29 00:42:52;;;;;;;16.58;6.32;;;10.20;99.90;;;;;;10465311;28;20017;-61
2022/11/29 00:47:53;;;;;;;14.25;6.10;;;10.20;99.90;;;;;;10468238;28;20081;-62
2022/11/29 00:52:53;;;;;;;15.50;5.88;;;10.20;99.90;;;;;;10463674;28;20040;-64
2022/11/29 00:57:54;;;;;;;16.27;6.57;;;10.20;99.90;;;;;;10467964;28;20025;-62
2022/11/29 01:02:55;;;;;;;14.88;5.68;;;10.20;99.90;;;;;;10471648;28;20031;-61
2022/11/29 01:07:55;;;;;;;13.23;6.22;;;10.20;99.90;;;;;;10459411;28;20421;-61
2022/11/29 01:12:56;;;;;;;11.90;5.80;;;10.20;99.90;;;;;;10451887;28;20025;-61
2022/11/29 01:17:57;;;;;;;13.93;6.22;;;10.20;99.90;;;;;;10465707;28;20048;-61
2022/11/29 01:22:58;;;;;;;14.60;6.20;;;10.20;99.90;;;;;;10462627;28;20508;-63
2022/11/29 01:27:58;;;;;;;15.75;5.80;;;10.20;99.90;;;;;;10465381;28;20032;-69
2022/11/29 01:32:59;;;;;;;13.52;5.90;;;10.20;99.90;;;;;;10463111;28;20126;-62
2022/11/29 01:38:00;;;;;;;15.27;6.53;;;10.20;99.90;;;;;;10465223;28;20650;-63
2022/11/29 01:43:00;;;;;;;12.45;5.68;;;10.20;99.90;;;;;;10458884;28;20462;-69
2022/11/29 01:48:01;;;;;;;16.98;6.72;;;10.20;99.90;;;;;;10466140;28;20450;-64
2022/11/29 01:53:02;;;;;;;13.52;5.85;;;10.20;99.90;;;;;;10461793;28;20052;-69
2022/11/29 01:58:05;;;;;;;10.98;5.38;;;10.20;99.90;;;;;;10466189;28;20484;-62
2022/11/29 02:03:11;;;;;;;14.73;6.28;;;10.20;99.90;;;;;;10469321;28;20481;-62
2022/11/29 02:08:15;;;;;;;11.80;5.28;;;10.20;99.90;;;;;;10465925;28;20389;-69
2022/11/29 02:13:44;;;;;;;13.38;5.55;;;10.20;99.90;;;;;;10458296;28;20021;-69
2022/11/29 02:19:26;;;;;;;12.60;5.43;;;10.20;99.90;;;;;;10464794;28;20470;-69
2022/11/29 02:24:40;;;;;;;10.55;4.78;;;10.20;99.90;;;;;;10460812;28;20516;-70
2022/11/29 02:29:56;;;;;;;13.90;5.35;;;10.20;99.90;;;;;;10474662;28;20029;-69
2022/11/29 02:35:31;;;;;;;10.45;4.82;;;10.20;99.90;;;;;;10468413;28;20029;-65
2022/11/29 02:41:00;;;;;;;12.48;5.22;;;10.20;99.90;;;;;;10469749;28;20069;-69
2022/11/29 02:46:21;;;;;;;;;;;10.20;99.90;;;;;;10472758;28;20131;-64
2022/11/29 02:51:46;;;;;;;11.45;5.05;;;10.20;99.90;;;;;;10460934;28;19916;-67
2022/11/29 02:56:55;;;;;;;10.73;4.65;;;10.20;99.90;;;;;;10460912;28;20029;-69
2022/11/29 03:02:26;;;;;;;10.07;4.32;;;10.20;99.90;;;;;;10469835;28;20021;-69
2022/11/29 03:07:54;;;;;;;9.23;4.57;;;10.20;99.90;;;;;;10449438;28;20040;-61
2022/11/29 03:12:57;;;;;;;10.00;4.15;;;10.20;99.90;;;;;;10465686;28;20087;-64
2022/11/29 03:18:34;;;;;;;10.38;4.82;;;10.20;99.90;;;;;;10469445;28;20033;-69
2022/11/29 03:23:37;;;;;;;10.95;5.10;;;10.20;99.90;;;;;;10444088;28;20036;-67
2022/11/29 03:28:47;;;;;;;10.32;4.43;;;10.10;99.90;;;;;;10472698;28;20037;-60
2022/11/29 03:34:05;;;;;;;9.88;4.43;;;10.20;99.90;;;;;;10464381;28;20057;-65
2022/11/29 03:39:16;;;;;;;12.15;4.38;;;10.20;99.90;;;;;;10468388;28;20455;-62
2022/11/29 03:44:26;;;;;;;11.75;4.63;;;10.10;99.90;;;;;;10474005;28;20125;-61
2022/11/29 03:49:54;;;;;;;10.02;4.30;;;10.10;99.90;;;;;;10468192;28;20056;-67
2022/11/29 03:55:29;;;;;;;9.07;4.32;;;10.10;99.90;;;;;;10463081;28;20052;-61
2022/11/29 04:00:48;;;;;;;8.15;3.83;;;10.10;99.90;;;;;;10465983;28;20044;-61
2022/11/29 04:06:27;;;;;;;8.35;4.20;;;10.10;99.90;;;;;;10457853;28;20048;-61
2022/11/29 04:12:04;;;;;;;10.30;4.68;;;10.10;99.90;;;;;;10379401;28;20044;-61
2022/11/29 04:17:31;;;;;;;8.55;4.30;;;10.10;99.90;;;;;;10467107;28;20032;-61
2022/11/29 04:22:41;;;;;;;9.55;4.20;;;10.10;99.90;;;;;;10464362;28;20028;-65
2022/11/29 04:27:50;;;;;;;10.35;4.18;;;10.10;99.90;;;;;;10461697;28;20132;-63
2022/11/29 04:33:22;;;;;;;10.75;4.13;;;10.10;99.90;;;;;;10469400;28;20032;-67
2022/11/29 04:38:23;;;;;;;9.75;4.22;;;10.10;99.90;;;;;;10467293;28;20036;-61
2022/11/29 04:43:29;;;;;;;9.10;3.70;;;10.10;99.90;;;;;;10473024;28;20041;-68
2022/11/29 04:49:09;;;;;;;9.20;4.45;;;10.10;99.90;;;;;;10461734;28;20139;-64
2022/11/29 04:54:32;;;;;;;10.40;3.67;;;10.10;99.90;;;;;;10457365;28;20135;-66
2022/11/29 04:59:43;;;;;;;10.63;4.18;;;10.10;99.90;;;;;;10462683;28;20633;-65
2022/11/29 05:05:09;;;;;;;8.85;4.00;;;10.10;99.90;;;;;;10465753;28;20096;-67
2022/11/29 05:10:38;;;;;;;8.18;3.97;;;10.10;99.90;;;;;;10458829;28;20489;-67
2022/11/29 05:16:01;;;;;;;9.47;4.27;;;10.10;99.90;;;;;;10457819;28;20037;-65
2022/11/29 05:21:17;;;;;;;9.68;4.35;;;10.10;99.90;;;;;;10463239;28;20434;-65
2022/11/29 05:26:42;;;;;;;7.53;3.78;;;10.10;99.90;;;;;;10468419;28;20044;-65
2022/11/29 05:31:58;;;;;;;8.43;4.72;;;10.10;99.90;;;;;;10462460;28;20016;-64
2022/11/29 05:37:08;;;;;;;10.95;4.20;;;10.10;99.90;;;;;;10444561;28;20024;-65
2022/11/29 05:47:48;;;;;;;9.23;4.25;;;10.50;99.90;;;;;;10429637;28;20505;-68
2022/11/29 05:53:00;;;;;;;10.23;3.80;;;10.10;99.90;;;;;;10366692;28;20047;-68
2022/11/29 05:58:06;;;;;;;11.95;4.55;;;10.00;99.90;;;;;;10433140;28;20532;-68
2022/11/29 06:03:30;;;;;;;8.43;4.22;;;10.00;99.90;;;;;;10428597;28;20025;-61
2022/11/29 06:08:54;;;;;;;9.38;4.30;;;10.00;99.90;;;;;;10427801;28;20068;-61
2022/11/29 06:14:30;;;;;;;8.02;4.10;;;10.00;99.90;;;;;;10435572;28;20021;-62
2022/11/29 06:19:36;;;;;;;8.88;3.90;;;10.00;99.90;;;;;;10430673;28;20016;-61
2022/11/29 06:25:05;;;;;;;9.25;4.03;;;10.00;99.90;;;;;;10437069;28;20059;-62
2022/11/29 06:30:08;;;;;;;8.57;3.33;;;10.00;99.90;;;;;;10428103;28;20120;-61
2022/11/29 06:35:14;;;;;;;10.52;4.00;;;10.00;99.90;;;;;;10425931;28;20021;-63
2022/11/29 06:40:15;;;;;;;9.70;4.20;;;10.10;99.90;;;;;;10430958;28;20116;-64
2022/11/29 06:45:16;;;;;;;7.78;3.63;;;10.00;99.90;;;;;;10428987;28;20048;-62
2022/11/29 06:50:26;;;;;;;9.50;4.20;;;10.00;99.90;;;;;;10430582;28;20410;-62
2022/11/29 06:55:31;;;;;;;8.77;4.32;;;10.00;99.90;;;;;;10428934;28;20450;-67
2022/11/29 07:00:52;;;;;;;9.27;4.38;;;10.00;99.90;;;;;;10436937;28;20025;-61
2022/11/29 07:05:53;;;;;;;9.38;3.85;;;10.00;99.90;;;;;;10424937;28;20052;-62
2022/11/29 07:10:54;;;;;;;10.95;4.13;;;10.00;99.90;;;;;;10440596;28;20029;-61
2022/11/29 07:16:25;;;;;;;9.57;4.57;;;10.00;99.90;;;;;;10435981;28;20037;-61
2022/11/29 07:21:44;;;;;;;9.75;4.13;;;10.00;99.90;;;;;;10445534;28;20033;-66
2022/11/29 07:27:19;;;;;;;9.35;4.03;;;10.00;99.90;;;;;;10433864;28;20494;-64
2022/11/29 07:32:41;;;;;;;9.80;4.20;;;10.10;99.90;;;;;;10401115;28;20029;-61
2022/11/29 07:37:42;;;;;;;9.38;4.15;;;10.00;99.90;;;;;;10439123;28;20041;-61
2022/11/29 07:42:46;;;;;;;9.68;4.40;;;10.10;99.90;;;;;;10439178;28;20033;-62
2022/11/29 07:47:48;;;;;;;8.85;4.00;;;10.10;99.90;;;;;;10438732;28;20029;-68
2022/11/29 07:52:49;;;;;;;10.13;4.05;;;10.10;99.90;;;;;;10436552;28;20093;-63
2022/11/29 07:57:50;;;;;;;8.73;4.35;;;10.00;99.90;;;;;;10440617;28;20033;-69
2022/11/29 08:02:51;;;;;;;8.25;4.10;;;10.10;99.90;;;;;;10441021;28;20014;-69
2022/11/29 08:07:53;;;;;;;8.98;3.90;;;10.00;99.90;;;;;;10421167;28;20045;-70
2022/11/29 08:12:54;;;;;;;8.20;4.55;;;10.00;99.90;;;;;;10350482;28;20455;-61
2022/11/29 08:17:54;;;;;;;9.20;3.90;;;10.00;99.90;;;;;;10360724;28;20497;-61
2022/11/29 08:22:57;;;;;;;8.98;3.95;;;10.00;99.90;;;;;;10357260;28;20032;-61
2022/11/29 08:28:02;;;;;;;8.43;4.07;;;10.40;99.90;;;;;;10338253;28;20557;-61
2022/11/29 08:33:03;;;;;;;7.68;3.88;;;10.00;99.90;;;;;;10364689;28;20449;-61
2022/11/29 08:38:04;;;;;;;7.38;3.60;;;10.00;99.90;;;;;;10363221;28;20481;-61
2022/11/29 08:43:05;;;;;;;7.57;3.75;;;10.00;99.90;;;;;;10363563;28;20472;-61
2022/11/29 08:48:06;;;;;;;7.55;3.55;;;10.00;99.90;;;;;;10356477;28;20044;-66
2022/11/29 08:58:27;;;;;;;8.85;3.88;;;10.00;99.90;;;;;;10356568;28;20149;-61
2022/11/29 09:14:44;;;;;;;6.32;3.20;;;10.00;99.90;;;;;;10358802;28;20048;-61
2022/11/29 09:19:45;;;;;;;7.13;3.38;;;10.00;99.90;;;;;;10341051;28;20242;-61
2022/11/29 09:24:46;;;;;;;7.72;3.33;;;10.00;99.90;;;;;;10342037;28;20045;-69
2022/11/29 09:29:46;;;;;;;7.25;3.33;;;10.00;99.90;;;;;;10344027;28;20293;-64
2022/11/29 09:34:47;;;;;;;6.35;3.78;;;10.00;99.90;;;;;;10343368;28;20269;-61
2022/11/29 09:39:48;;;;;;;6.00;2.97;;;10.00;99.90;;;;;;10355316;28;20416;-61
2022/11/29 09:44:59;;;;;;;6.50;2.83;;;10.00;99.90;;;;;;10346597;28;20053;-61
2022/11/29 09:50:22;;;;;;;6.57;3.13;;;10.00;99.90;;;;;;10344480;28;20029;-61
2022/11/29 09:55:46;;;;;;;5.45;3.00;;;10.00;99.90;;;;;;10349687;28;20029;-62
2022/11/29 10:00:57;;;;;;;6.72;2.92;;;10.00;99.90;;;;;;10344533;28;20340;-62
2022/11/29 10:06:06;;;;;;;7.72;3.40;;;10.00;99.90;;;;;;10344989;28;20337;-61
2022/11/29 10:11:55;;;;;;;6.65;3.33;;;10.00;99.90;;;;;;10334242;28;20025;-61
2022/11/29 10:17:21;;;;;;;5.50;2.90;;;10.10;99.90;;;;;;10306116;28;20048;-61
2022/11/29 10:22:35;;;;;;;7.75;4.03;;;10.00;99.90;;;;;;10349349;28;20343;-61
2022/11/29 10:27:39;;;;;;;7.38;3.63;;;10.10;99.90;;;;;;10344086;28;20398;-61
2022/11/29 10:32:41;;;;;;;7.00;3.35;;;10.10;99.90;;;;;;10340492;28;20415;-60
2022/11/29 10:37:42;;;;;;;5.93;3.17;;;10.10;99.90;;;;;;10345923;28;20029;-61
2022/11/29 10:42:52;;;;;;;6.13;3.35;;;10.10;99.90;;;;;;10348074;28;20030;-62
2022/11/29 10:47:56;;;;;;;6.70;3.45;;;10.10;99.90;;;;;;10358549;28;20882;-61
2022/11/29 10:53:10;;;;;;;6.65;3.08;;;10.10;99.90;;;;;;10350486;28;20440;-61
2022/11/29 10:58:12;;;;;;;7.88;3.03;;;10.20;99.90;;;;;;10348459;28;20250;-61
2022/11/29 11:03:39;;;;;;;6.85;3.25;;;10.10;99.90;;;;;;10349442;28;20152;-61
2022/11/29 11:08:43;;;;;;;7.03;3.10;;;10.20;99.90;;;;;;10341161;28;20564;-61
2022/11/29 11:14:03;;;;;;;6.50;3.05;;;10.20;99.90;;;;;;10358300;28;20459;-61
2022/11/29 11:19:30;;;;;;;5.60;2.90;;;9.90;99.90;;;;;;10345427;28;20524;-60
2022/11/29 11:24:35;;;;;;;7.78;3.13;;;10.20;99.90;;;;;;10351315;28;20083;-61
2022/11/29 11:29:43;;;;;;;7.55;3.58;;;10.20;99.90;;;;;;10345452;28;20036;-61
2022/11/29 11:34:59;;;;;;;7.25;3.28;;;10.30;99.90;;;;;;10333396;28;20107;-61
2022/11/29 11:40:19;;;;;;;5.63;2.58;;;10.30;99.90;;;;;;10343900;28;20585;-69
2022/11/29 11:45:31;;;;;;;5.53;2.88;;;10.40;99.90;;;;;;10350990;28;20573;-61
2022/11/29 11:50:40;;;;;;;5.50;3.00;;;10.50;99.90;;;;;;10350069;28;20040;-61
2022/11/29 11:55:55;;;;;;;5.40;2.60;;;10.40;99.90;;;;;;10354412;28;20037;-61
2022/11/29 12:01:23;;;;;;;6.38;3.05;;;10.40;99.90;;;;;;10365532;28;20067;-62
2022/11/29 12:06:45;;;;;;;9.02;3.20;;;10.40;99.90;;;;;;10337019;28;20056;-61
2022/11/29 12:12:23;;;;;;;5.65;2.90;;;10.10;99.90;;;;;;10341866;28;20144;-61
2022/11/29 12:17:33;;;;;;;6.05;2.90;;;10.40;99.90;;;;;;10348506;28;20227;-62
2022/11/29 12:22:42;;;;;;;5.65;2.72;;;10.40;99.90;;;;;;10351342;28;20538;-61
2022/11/29 12:27:43;;;;;;;4.55;2.58;;;10.40;99.90;;;;;;10346626;28;20484;-63
2022/11/29 12:33:12;;;;;;;5.60;2.60;;;10.40;99.90;;;;;;10346629;28;20142;-61
2022/11/29 12:38:40;;;;;;;4.55;2.40;;;10.40;99.90;;;;;;10360065;28;20032;-61
2022/11/29 12:44:18;;;;;;;7.70;3.55;;;10.40;99.90;;;;;;10353879;28;20710;-67
2022/11/29 12:49:19;;;;;;;5.00;2.38;;;10.40;99.90;;;;;;10351048;28;20727;-61
2022/11/29 12:54:40;;;;;;;5.13;2.35;;;10.30;99.90;;;;;;10353195;28;20060;-62
2022/11/29 13:00:03;;;;;;;4.10;2.40;;;10.30;99.90;;;;;;10340052;28;20598;-62
2022/11/29 13:05:25;;;;;;;5.18;2.65;;;10.30;99.90;;;;;;10325057;28;20036;-61
2022/11/29 13:10:53;;;;;;;5.95;2.60;;;10.30;99.90;;;;;;10340516;28;20539;-61
2022/11/29 13:16:07;;;;;;;6.22;2.72;;;10.30;99.90;;;;;;10343072;28;20090;-61
2022/11/29 13:21:21;;;;;;;5.72;2.75;;;10.00;99.90;;;;;;10348092;28;20639;-62
2022/11/29 13:26:25;;;;;;;4.15;2.40;;;10.30;99.90;;;;;;10344609;28;20045;-62
2022/11/29 13:31:26;;;;;;;5.10;2.75;;;10.30;99.90;;;;;;10345767;28;20302;-61
2022/11/29 13:36:58;;;;;;;5.93;2.63;;;10.30;99.90;;;;;;10363761;28;20072;-61
2022/11/29 13:42:09;;;;;;;4.72;2.40;;;10.30;99.90;;;;;;10350705;28;20907;-62
2022/11/29 13:47:15;;;;;;;7.80;2.53;;;10.30;99.90;;;;;;10352850;28;20040;-62
2022/11/29 13:52:38;;;;;;;4.65;2.67;;;10.30;99.90;;;;;;10346935;28;20798;-61
2022/11/29 13:57:55;;;;;;;7.03;3.30;;;10.30;99.90;;;;;;10348446;28;20535;-61
2022/11/29 14:02:57;;;;;;;4.45;2.13;;;10.30;99.90;;;;;;10350189;28;20211;-61
2022/11/29 14:08:34;;;;;;;4.65;3.08;;;10.30;99.90;;;;;;10347360;28;20040;-61
2022/11/29 14:14:08;;;;;;;5.90;2.90;;;10.30;99.90;;;;;;10269654;28;20491;-61
2022/11/29 14:19:09;;;;;;;4.32;2.45;;;10.30;99.90;;;;;;10309543;28;20045;-62
2022/11/29 14:24:36;;;;;;;5.43;2.80;;;10.30;99.90;;;;;;10350594;28;20506;-61
2022/11/29 14:29:46;;;;;;;9.10;3.28;;;10.30;99.90;;;;;;10353461;28;20045;-61
2022/11/29 14:34:51;;;;;;;4.47;2.65;;;10.30;99.90;;;;;;10359421;28;20072;-63
2022/11/29 14:39:56;;;;;;;5.10;2.60;;;10.30;99.90;;;;;;10350985;28;20033;-62
2022/11/29 14:45:00;;;;;;;5.97;2.75;;;10.30;99.90;;;;;;10359821;28;20048;-60
2022/11/29 14:50:07;;;;;;;5.40;2.60;;;10.30;99.90;;;;;;10342283;28;20084;-61
2022/11/29 14:55:28;;;;;;;6.75;3.10;;;10.30;99.90;;;;;;10343455;28;20067;-62
2022/11/29 15:00:40;;;;;;;4.55;2.40;;;10.40;99.90;;;;;;10347228;28;20029;-73
2022/11/29 15:05:55;;;;;;;7.80;3.10;;;10.40;99.90;;;;;;10347490;28;20044;-72
2022/11/29 15:10:58;;;;;;;4.72;2.50;;;10.40;99.90;;;;;;10354639;28;20033;-61
2022/11/29 15:16:34;;;;;;;6.93;3.55;;;10.30;99.90;;;;;;10351750;28;20039;-63
2022/11/29 15:21:35;;;;;;;4.18;2.25;;;10.40;99.90;;;;;;10343900;28;20053;-65
2022/11/29 15:26:36;;;;;;;4.80;2.80;;;10.40;99.90;;;;;;10349317;28;20051;-62
2022/11/29 15:31:39;;;;;;;3.97;2.60;;;10.40;99.90;;;;;;10340217;28;20680;-65
2022/11/29 15:36:42;;;;;;;5.25;2.72;;;10.40;99.90;;;;;;10350887;28;20021;-61
2022/11/29 15:41:43;;;;;;;7.57;2.80;;;10.30;99.90;;;;;;10352615;28;20029;-61
2022/11/29 15:46:44;;;;;;;5.05;2.47;;;10.40;99.90;;;;;;10357720;28;20464;-61
2022/11/29 15:51:49;;;;;;;6.93;2.92;;;10.40;99.90;;;;;;10347381;28;20525;-62
2022/11/29 15:56:59;;;;;;;7.60;2.40;;;10.70;99.90;;;;;;10344946;28;20464;-62
2022/11/29 16:02:31;;;;;;;10.75;3.97;;;10.40;99.90;;;;;;10415123;28;20025;-62
2022/11/29 16:07:33;;;;;;;7.25;3.20;;;10.40;99.90;;;;;;10438178;28;20034;-61
2022/11/29 16:12:33;;;;;;;8.02;2.90;;;10.40;99.90;;;;;;10440738;28;20044;-65
2022/11/29 16:17:34;;;;;;;7.32;2.88;;;10.40;99.90;;;;;;10431100;28;20509;-69
2022/11/29 16:22:35;;;;;;;7.60;2.75;;;10.40;99.90;;;;;;10434406;28;20397;-61
2022/11/29 16:27:36;;;;;;;11.98;2.95;;;10.40;99.90;;;;;;10437947;28;20033;-62
2022/11/29 16:32:41;;;;;;;14.57;3.92;;;10.40;99.90;;;;;;10439969;28;20028;-61
2022/11/29 16:37:44;;;;;;;9.93;4.15;;;10.40;99.90;;;;;;10436056;28;20481;-61
2022/11/29 16:43:06;;;;;;;11.07;3.90;;;10.40;99.90;;;;;;10438065;28;20028;-67
2022/11/29 16:48:24;;;;;;;6.75;3.03;;;10.40;99.90;;;;;;10435721;28;20052;-69
2022/11/29 16:53:36;;;;;;;7.65;3.20;;;10.40;99.90;;;;;;10440186;28;20121;-64
2022/11/29 16:58:37;;;;;;;8.90;3.65;;;10.40;99.90;;;;;;10438009;28;20025;-64
2022/11/29 17:03:39;;;;;;;8.88;4.07;;;10.40;99.90;;;;;;10436666;28;20394;-65
2022/11/29 17:08:40;;;;;;;6.50;3.70;;;10.40;99.90;;;;;;10432758;28;20052;-66
2022/11/29 17:13:41;;;;;;;9.10;4.10;;;10.40;99.90;;;;;;10436259;28;20436;-67
2022/11/29 17:18:43;;;;;;;7.97;4.43;;;10.40;99.90;;;;;;10435444;28;20044;-64
2022/11/29 17:23:45;;;;;;;7.60;4.20;;;10.40;99.90;;;;;;10435228;28;20477;-66
2022/11/29 17:28:47;;;;;;;9.50;5.05;;;10.30;99.90;;;;;;10431696;28;20504;-70
2022/11/29 17:33:48;;;;;;;7.05;4.25;;;10.30;99.90;;;;;;10438482;28;20021;-67
2022/11/29 17:38:49;;;;;;;8.02;4.20;;;10.30;99.90;;;;;;10431474;28;20083;-62
2022/11/29 17:43:51;;;;;;;6.22;3.92;;;10.30;99.90;;;;;;10440852;28;20020;-68
2022/11/29 17:48:53;;;;;;;7.15;4.40;;;10.30;99.90;;;;;;10434011;28;20049;-63
2022/11/29 17:53:54;;;;;;;5.82;4.15;;;10.30;99.90;;;;;;10434536;28;20027;-61
2022/11/29 17:58:57;;;;;;;8.50;4.03;;;10.30;99.90;;;;;;10434892;28;20493;-65
2022/11/29 18:04:00;;;;;;;9.02;4.30;;;10.30;99.90;;;;;;10429466;28;20083;-68
2022/11/29 18:09:02;;;;;;;6.97;4.00;;;10.30;99.90;;;;;;10437616;28;20037;-66
2022/11/29 18:14:03;;;;;;;7.10;3.78;;;10.40;99.90;;;;;;10434029;28;20021;-62
2022/11/29 18:19:07;;;;;;;6.82;3.70;;;10.30;99.90;;;;;;10422954;28;20028;-61
2022/11/29 18:24:08;;;;;;;7.57;3.85;;;10.30;99.90;;;;;;10432045;28;20037;-67
2022/11/29 18:29:09;;;;;;;6.60;3.83;;;10.30;99.90;;;;;;10427947;28;20029;-62
2022/11/29 18:34:11;;;;;;;6.80;4.20;;;10.30;99.90;;;;;;10435272;28;20017;-64
2022/11/29 18:39:21;;;;;;;8.88;5.22;;;10.30;99.90;;;;;;10437191;28;20024;-61
2022/11/29 18:44:28;;;;;;;10.15;4.70;;;10.20;99.90;;;;;;10438950;28;20044;-62
2022/11/29 18:49:29;;;;;;;7.95;5.03;;;10.10;99.90;;;;;;10432575;28;20163;-62
2022/11/29 18:54:29;;;;;;;8.60;5.10;;;10.10;99.90;;;;;;10434244;28;20029;-61
2022/11/29 18:59:30;;;;;;;10.23;5.32;;;10.10;99.90;;;;;;10421563;28;20032;-61
2022/11/29 19:04:31;;;;;;;11.65;5.65;;;10.20;99.90;;;;;;10421673;28;20037;-65
2022/11/29 19:09:32;;;;;;;8.90;5.18;;;10.20;99.90;;;;;;10439195;28;20045;-65
2022/11/29 19:14:32;;;;;;;9.35;5.03;;;10.20;99.90;;;;;;10441624;28;20029;-68
2022/11/29 19:19:33;;;;;;;11.10;5.68;;;10.20;99.90;;;;;;10436153;28;20032;-70
2022/11/29 19:24:34;;;;;;;9.20;4.72;;;10.20;99.90;;;;;;10438691;28;20025;-69
2022/11/29 19:29:35;;;;;;;11.07;5.40;;;10.20;99.90;;;;;;10436549;28;20040;-71
2022/11/29 19:34:35;;;;;;;9.73;4.97;;;10.20;99.90;;;;;;10432776;28;20159;-68
2022/11/29 19:39:37;;;;;;;10.07;5.32;;;10.20;99.90;;;;;;10435406;28;20060;-61
2022/11/29 19:44:38;;;;;;;10.45;5.32;;;10.20;99.90;;;;;;10440365;28;20036;-67
2022/11/29 19:49:39;;;;;;;10.30;5.30;;;10.20;99.90;;;;;;10433095;28;20025;-70
2022/11/29 19:54:40;;;;;;;8.65;4.90;;;10.20;99.90;;;;;;10435714;28;20032;-64
2022/11/29 19:59:41;;;;;;;8.95;5.45;;;10.20;99.90;;;;;;10438569;28;20497;-70
2022/11/29 20:04:42;;;;;;;10.48;5.28;;;10.20;99.90;;;;;;10437661;28;20443;-60
2022/11/29 20:09:42;;;;;;;9.68;5.90;;;10.20;99.90;;;;;;10441178;28;20119;-67
2022/11/29 20:14:43;;;;;;;10.90;5.93;;;10.20;99.90;;;;;;10432726;28;20029;-70
2022/11/29 20:19:44;;;;;;;11.68;6.30;;;10.20;99.90;;;;;;10435166;28;20120;-71
2022/11/29 20:24:44;;;;;;;9.25;5.45;;;10.20;99.90;;;;;;10439605;28;20022;-71
2022/11/29 20:29:45;;;;;;;10.30;5.65;;;10.20;99.90;;;;;;10438965;28;20044;-67
2022/11/29 20:34:46;;;;;;;10.55;5.82;;;10.20;99.90;;;;;;10433860;28;20067;-71
2022/11/29 20:40:03;;;;;;;9.10;5.50;;;10.20;99.90;;;;;;10436415;28;20041;-61
2022/11/29 20:45:08;;;;;;;10.85;5.40;;;10.20;99.90;;;;;;10437612;28;20065;-70
2022/11/29 20:50:30;;;;;;;10.98;5.78;;;10.20;99.90;;;;;;10433004;28;20248;-71
2022/11/29 20:55:31;;;;;;;10.27;5.65;;;10.20;99.90;;;;;;10433775;28;20029;-61
2022/11/29 21:00:33;;;;;;;10.15;5.95;;;10.20;99.90;;;;;;10433558;28;20021;-67
2022/11/29 21:05:36;;;;;;;10.25;5.57;;;10.20;99.90;;;;;;10438376;28;20037;-60
2022/11/29 21:10:37;;;;;;;13.15;6.50;;;10.20;99.90;;;;;;10433744;28;20025;-62
2022/11/29 21:15:38;;;;;;;10.80;6.03;;;10.30;99.90;;;;;;10436654;28;20036;-65
2022/11/29 21:20:40;;;;;;;9.40;5.40;;;10.30;99.90;;;;;;10434607;28;20469;-63
2022/11/29 21:25:50;;;;;;;11.23;6.13;;;10.30;99.90;;;;;;10431833;28;20057;-65
2022/11/29 21:30:51;;;;;;;10.55;5.82;;;10.20;99.90;;;;;;10435839;28;20029;-68
2022/11/29 21:35:56;;;;;;;12.32;6.32;;;10.20;99.90;;;;;;10433243;28;20075;-61
2022/11/29 21:40:57;;;;;;;11.05;6.38;;;10.20;99.90;;;;;;10436406;28;20029;-64
2022/11/29 21:45:59;;;;;;;9.43;5.20;;;10.20;99.90;;;;;;10436258;28;20056;-62
2022/11/29 21:51:07;;;;;;;12.15;5.82;;;10.20;99.90;;;;;;10434639;28;20078;-62
2022/11/29 21:56:09;;;;;;;11.52;6.35;;;10.20;99.90;;;;;;10436556;28;20091;-61
2022/11/29 22:01:13;;;;;;;10.02;5.70;;;10.20;99.90;;;;;;10436642;28;20040;-63
2022/11/29 22:06:19;;;;;;;12.80;6.53;;;10.20;99.90;;;;;;10431700;28;20041;-61
2022/11/29 22:11:30;;;;;;;13.27;6.45;;;10.20;99.90;;;;;;10432091;28;20113;-68
2022/11/29 22:16:31;;;;;;;11.68;6.07;;;10.20;99.90;;;;;;10434085;28;20161;-61
2022/11/29 22:21:32;;;;;;;11.70;6.65;;;10.20;99.90;;;;;;10429048;28;20107;-69
2022/11/29 22:26:32;;;;;;;11.73;7.00;;;10.10;99.90;;;;;;10433258;28;20045;-69
2022/11/29 22:31:34;;;;;;;14.82;6.93;;;10.20;99.90;;;;;;10431418;28;20029;-69
2022/11/29 22:36:36;;;;;;;12.38;6.13;;;10.10;99.90;;;;;;10428043;28;20063;-66
2022/11/29 22:41:38;;;;;;;11.00;5.93;;;10.10;99.90;;;;;;10436054;28;20560;-70
2022/11/29 22:46:42;;;;;;;13.73;6.47;;;10.10;99.90;;;;;;10437239;28;20102;-71
2022/11/29 22:51:42;;;;;;;13.00;6.25;;;10.10;99.90;;;;;;10438272;28;20041;-71
2022/11/29 22:56:44;;;;;;;12.88;6.35;;;10.10;99.90;;;;;;10437305;28;20132;-60
2022/11/29 23:01:47;;;;;;;12.50;7.05;;;10.20;99.90;;;;;;10441475;28;20058;-68
2022/11/29 23:06:48;;;;;;;12.38;7.22;;;10.10;99.90;;;;;;10442793;28;20496;-67
2022/11/29 23:11:53;;;;;;;10.10;5.97;;;10.10;99.90;;;;;;10438736;28;20023;-70
2022/11/29 23:16:54;;;;;;;12.15;6.30;;;10.10;99.90;;;;;;10440276;28;20033;-60
2022/11/29 23:21:55;;;;;;;11.50;6.28;;;10.10;99.90;;;;;;10441174;28;20018;-61
2022/11/29 23:26:56;;;;;;;11.88;6.72;;;10.00;99.90;;;;;;10436913;28;20059;-65
2022/11/29 23:31:56;;;;;;;12.02;6.25;;;10.00;99.90;;;;;;10433262;28;20505;-63
2022/11/29 23:36:57;;;;;;;12.45;6.63;;;10.00;99.90;;;;;;10431944;28;20030;-60
2022/11/29 23:41:58;;;;;;;12.88;6.90;;;10.00;99.90;;;;;;10432520;28;20117;-60
2022/11/29 23:46:58;;;;;;;13.52;6.97;;;10.00;99.90;;;;;;10438570;28;20044;-61
2022/11/29 23:51:59;;;;;;;13.63;6.80;;;10.00;99.90;;;;;;10440938;28;20112;-65
2022/11/29 23:57:00;;;;;;;11.18;6.35;;;10.00;99.90;;;;;;10433543;28;20033;-69
